createdAt,value
2022-10-06T00:01:51.934Z,99421.56
2022-10-06T00:04:20.784Z,99429.16
2022-10-06T00:06:49.392Z,99429.97
2022-10-06T00:09:19.595Z,99427.06
2022-10-06T00:11:48.366Z,99433.22
2022-10-06T00:14:17.111Z,99428.91
2022-10-06T00:16:45.861Z,99429.50
2022-10-06T00:19:14.481Z,99424.13
2022-10-06T00:21:43.085Z,99433.59
2022-10-06T00:24:11.767Z,99437.91
2022-10-06T00:26:41.914Z,99438.97
2022-10-06T00:29:13.581Z,99438.47
2022-10-06T00:31:43.903Z,99434.28
2022-10-06T00:34:13.016Z,99431.34
2022-10-06T00:36:41.750Z,99426.34
2022-10-06T00:39:10.609Z,99431.22
2022-10-06T00:41:42.016Z,99429.72
2022-10-06T00:44:10.763Z,99425.41
2022-10-06T00:46:46.462Z,99430.28
2022-10-06T00:49:22.173Z,99424.09
2022-10-06T00:51:58.310Z,99428.66
2022-10-06T00:54:28.727Z,99426.53
2022-10-06T00:56:59.555Z,99425.25
2022-10-06T00:59:28.231Z,99431.09
2022-10-06T01:02:05.340Z,99436.00
2022-10-06T01:04:37.486Z,99424.19
2022-10-06T01:07:08.008Z,99429.81
2022-10-06T01:09:39.698Z,99433.09
2022-10-06T01:12:10.913Z,99431.81
2022-10-06T01:14:42.351Z,99432.63
2022-10-06T01:17:20.837Z,99435.31
2022-10-06T01:19:55.696Z,99428.88
2022-10-06T01:22:35.400Z,99432.63
2022-10-06T01:25:05.670Z,99438.81
2022-10-06T01:27:37.753Z,99440.56
2022-10-06T01:30:12.369Z,99432.75
2022-10-06T01:32:41.564Z,99427.38
2022-10-06T01:35:11.695Z,99432.50
2022-10-06T01:37:42.975Z,99442.19
2022-10-06T01:40:25.702Z,99451.31
2022-10-06T01:42:54.546Z,99450.25
2022-10-06T01:45:23.379Z,99452.94
2022-10-06T01:47:52.958Z,99458.31
2022-10-06T01:50:21.757Z,99449.69
2022-10-06T01:52:52.000Z,99454.00
2022-10-06T01:55:20.747Z,99464.16
2022-10-06T01:57:50.198Z,99466.63
2022-10-06T02:00:20.622Z,99467.44
2022-10-06T02:02:50.849Z,99467.19
2022-10-06T02:05:19.834Z,99471.75
2022-10-06T02:07:53.472Z,99464.75
2022-10-06T02:10:22.290Z,99471.19
2022-10-06T02:12:53.189Z,99473.06
2022-10-06T02:15:25.194Z,99472.22
2022-10-06T02:17:54.705Z,99466.84
2022-10-06T02:20:28.848Z,99477.00
2022-10-06T02:22:59.256Z,99472.81
2022-10-06T02:25:28.467Z,99488.34
2022-10-06T02:27:57.629Z,99485.66
2022-10-06T02:30:26.318Z,99485.66
2022-10-06T02:32:55.612Z,99496.41
2022-10-06T02:35:24.366Z,99501.78
2022-10-06T02:37:53.439Z,99504.47
2022-10-06T02:40:24.599Z,99510.88
2022-10-06T02:42:54.486Z,99522.25
2022-10-06T02:45:24.519Z,99522.81
2022-10-06T02:47:54.971Z,99504.56
2022-10-06T02:50:23.960Z,99510.75
2022-10-06T02:52:52.917Z,99513.25
2022-10-06T02:55:23.176Z,99500.38
2022-10-06T02:57:51.870Z,99496.63
2022-10-06T03:00:21.455Z,99503.63
2022-10-06T03:02:50.267Z,99506.31
2022-10-06T03:05:19.065Z,99517.06
2022-10-06T03:07:47.892Z,99538.38
2022-10-06T03:10:16.986Z,99534.00
2022-10-06T03:12:47.055Z,99537.50
2022-10-06T03:15:16.234Z,99536.69
2022-10-06T03:17:45.017Z,99544.75
2022-10-06T03:20:13.721Z,99547.69
2022-10-06T03:22:43.493Z,99547.44
2022-10-06T03:25:13.313Z,99552.25
2022-10-06T03:27:42.048Z,99550.38
2022-10-06T03:30:13.722Z,99549.31
2022-10-06T03:32:42.468Z,99560.06
2022-10-06T03:35:12.375Z,99555.75
2022-10-06T03:37:42.629Z,99564.63
2022-10-06T03:40:12.109Z,99565.69
2022-10-06T03:42:40.891Z,99561.13
2022-10-06T03:45:12.635Z,99575.06
2022-10-06T03:47:41.457Z,99570.69
2022-10-06T03:50:11.359Z,99578.19
2022-10-06T03:52:40.231Z,99579.47
2022-10-06T03:55:10.172Z,99579.69
2022-10-06T03:57:38.902Z,99582.38
2022-10-06T04:00:09.290Z,99586.13
2022-10-06T04:02:42.336Z,99593.13
2022-10-06T04:05:11.852Z,99606.00
2022-10-06T04:07:40.666Z,99601.09
2022-10-06T04:10:11.534Z,99612.28
2022-10-06T04:12:40.529Z,99613.72
2022-10-06T04:15:10.874Z,99615.56
2022-10-06T04:17:41.155Z,99618.25
2022-10-06T04:20:10.217Z,99618.25
2022-10-06T04:22:38.960Z,99619.91
2022-10-06T04:25:09.585Z,99623.84
2022-10-06T04:27:38.514Z,99620.34
2022-10-06T04:30:14.667Z,99632.16
2022-10-06T04:32:46.256Z,99630.53
2022-10-06T04:35:15.679Z,99627.84
2022-10-06T04:37:44.938Z,99628.53
2022-10-06T04:40:14.919Z,99623.84
2022-10-06T04:42:45.638Z,99634.56
2022-10-06T04:45:17.457Z,99634.81
2022-10-06T04:47:50.934Z,99623.00
2022-10-06T04:50:20.054Z,99626.50
2022-10-06T04:53:06.858Z,99626.88
2022-10-06T04:55:35.581Z,99631.34
2022-10-06T04:58:07.072Z,99633.34
2022-10-06T05:00:36.702Z,99639.06
2022-10-06T05:03:07.351Z,99651.22
2022-10-06T05:05:37.465Z,99654.25
2022-10-06T05:08:06.490Z,99662.69
2022-10-06T05:10:35.275Z,99659.50
2022-10-06T05:13:06.137Z,99664.44
2022-10-06T05:15:35.226Z,99672.63
2022-10-06T05:18:04.263Z,99677.53
2022-10-06T05:20:34.426Z,99689.22
2022-10-06T05:23:07.842Z,99682.91
2022-10-06T05:25:36.650Z,99680.94
2022-10-06T05:28:05.478Z,99687.00
2022-10-06T05:30:34.178Z,99698.72
2022-10-06T05:33:03.163Z,99707.50
2022-10-06T05:35:33.243Z,99703.31
2022-10-06T05:38:01.967Z,99705.31
2022-10-06T05:40:30.543Z,99704.59
2022-10-06T05:42:59.630Z,99708.44
2022-10-06T05:45:29.118Z,99717.13
2022-10-06T05:47:57.785Z,99728.47
2022-10-06T05:50:27.103Z,99729.63
2022-10-06T05:52:58.108Z,99738.84
2022-10-06T05:55:27.294Z,99736.28
2022-10-06T05:57:56.577Z,99741.22
2022-10-06T06:00:25.507Z,99747.75
2022-10-06T06:02:54.459Z,99747.28
2022-10-06T06:05:23.248Z,99751.38
2022-10-06T06:07:51.917Z,99754.66
2022-10-06T06:10:21.987Z,99757.09
2022-10-06T06:12:50.664Z,99767.63
2022-10-06T06:16:04.450Z,99768.25
2022-10-06T06:18:38.434Z,99777.69
2022-10-06T06:21:11.095Z,99782.59
2022-10-06T06:23:44.306Z,99785.91
2022-10-06T06:26:18.612Z,99802.63
2022-10-06T06:28:51.877Z,99805.88
2022-10-06T06:31:26.831Z,99818.91
2022-10-06T06:33:57.890Z,99840.81
2022-10-06T06:36:35.775Z,99868.06
2022-10-06T06:39:10.467Z,99903.44
2022-10-06T06:41:45.153Z,99908.56
2022-10-06T06:44:36.860Z,99926.34
2022-10-06T06:47:28.260Z,99932.53
2022-10-06T06:50:00.306Z,99943.19
2022-10-06T06:52:31.254Z,99949.50
2022-10-06T06:55:00.401Z,99950.88
2022-10-06T06:57:31.131Z,99966.31
2022-10-06T07:00:02.827Z,99981.25
2022-10-06T07:02:33.246Z,100003.34
2022-10-06T07:05:02.516Z,100006.66
2022-10-06T07:07:32.137Z,100008.78
2022-10-06T07:10:01.180Z,100017.75
2022-10-06T07:12:34.200Z,100017.38
2022-10-06T07:15:20.445Z,100025.44
2022-10-06T07:18:11.144Z,100025.03
2022-10-06T07:20:57.511Z,100028.13
2022-10-06T07:23:44.018Z,100037.25
2022-10-06T07:26:17.240Z,100041.19
2022-10-06T07:28:49.600Z,100051.34
2022-10-06T07:31:20.182Z,100059.81
2022-10-06T07:33:49.989Z,100057.47
2022-10-06T07:36:20.737Z,100067.19
2022-10-06T07:38:49.462Z,100069.66
2022-10-06T07:41:20.064Z,100069.44
2022-10-06T07:43:58.310Z,100066.28
2022-10-06T07:46:29.934Z,100077.44
2022-10-06T07:49:03.869Z,100077.38
2022-10-06T07:51:33.524Z,100084.78
2022-10-06T07:54:04.240Z,100081.41
2022-10-06T07:56:40.302Z,100084.69
2022-10-06T07:59:10.360Z,100096.03
2022-10-06T08:01:41.045Z,100097.09
2022-10-06T08:04:09.764Z,100100.84
2022-10-06T08:06:38.612Z,100104.13
2022-10-06T08:09:07.876Z,100108.25
2022-10-06T08:11:36.594Z,100112.34
2022-10-06T08:14:05.318Z,100111.66
2022-10-06T08:16:35.386Z,100120.09
2022-10-06T08:19:04.581Z,100115.91
2022-10-06T08:21:35.628Z,100111.72
2022-10-06T08:24:04.374Z,100110.91
2022-10-06T08:26:33.303Z,100120.97
2022-10-06T08:29:03.368Z,100124.88
2022-10-06T08:31:34.811Z,100132.28
2022-10-06T08:34:04.423Z,100137.56
2022-10-06T08:36:35.272Z,100130.69
2022-10-06T08:39:03.899Z,100134.56
2022-10-06T08:41:43.297Z,100144.88
2022-10-06T08:44:30.430Z,100146.91
2022-10-06T08:47:05.538Z,100161.78
2022-10-06T08:49:41.246Z,100161.31
2022-10-06T08:52:27.587Z,100156.97
2022-10-06T08:55:11.614Z,100160.84
2022-10-06T08:58:03.296Z,100163.06
2022-10-06T09:00:34.194Z,100170.25
2022-10-06T09:03:05.683Z,100169.34
2022-10-06T09:05:35.120Z,100163.50
2022-10-06T09:08:35.492Z,100168.06
2022-10-06T09:11:27.559Z,100170.19
2022-10-06T09:14:04.500Z,100180.66
2022-10-06T09:16:40.465Z,100176.91
2022-10-06T09:19:20.398Z,100174.13
2022-10-06T09:21:53.182Z,100178.38
2022-10-06T09:24:34.686Z,100180.03
2022-10-06T09:27:19.692Z,100176.19
2022-10-06T09:29:50.136Z,100175.81
2022-10-06T09:32:21.096Z,100192.34
2022-10-06T09:34:56.389Z,100189.69
2022-10-06T09:37:25.416Z,100190.94
2022-10-06T09:39:55.394Z,100187.78
2022-10-06T09:42:29.766Z,100188.28
2022-10-06T09:45:02.348Z,100188.84
2022-10-06T09:47:40.964Z,100192.41
2022-10-06T09:50:25.843Z,100185.00
2022-10-06T09:53:16.232Z,100187.75
2022-10-06T09:55:54.920Z,100193.47
2022-10-06T09:58:31.539Z,100193.34
2022-10-06T10:01:03.699Z,100196.91
2022-10-06T10:04:18.931Z,100203.41
2022-10-06T10:06:43.548Z,100206.81
2022-10-06T10:09:27.771Z,100205.16
2022-10-06T10:12:27.818Z,100213.47
2022-10-06T10:15:24.341Z,100209.97
2022-10-06T10:17:55.804Z,100212.56
2022-10-06T10:20:34.322Z,100206.09
2022-10-06T10:23:19.985Z,100221.38
2022-10-06T10:26:27.238Z,100223.69
2022-10-06T10:29:43.049Z,100229.34
2022-10-06T10:32:18.380Z,100229.47
2022-10-06T10:35:04.507Z,100227.47
2022-10-06T10:37:43.147Z,100226.41
2022-10-06T10:40:28.470Z,100221.47
2022-10-06T10:43:17.653Z,100225.25
2022-10-06T10:45:52.592Z,100227.31
2022-10-06T10:48:31.551Z,100231.19
2022-10-06T10:51:08.427Z,100239.34
2022-10-06T10:53:48.065Z,100238.22
2022-10-06T10:56:23.404Z,100240.50
2022-10-06T10:58:57.550Z,100236.44
2022-10-06T11:01:35.232Z,100237.66
2022-10-06T11:04:05.142Z,100236.22
2022-10-06T11:07:23.669Z,100245.16
2022-10-06T11:10:04.717Z,100246.84
2022-10-06T11:13:04.644Z,100252.53
2022-10-06T11:15:56.693Z,100246.72
2022-10-06T11:18:48.240Z,100244.34
2022-10-06T11:21:25.304Z,100243.66
2022-10-06T11:24:01.807Z,100245.69
2022-10-06T11:27:15.145Z,100250.13
2022-10-06T11:30:02.006Z,100250.00
2022-10-06T11:32:51.438Z,100248.84
2022-10-06T11:35:24.080Z,100248.25
2022-10-06T11:38:01.195Z,100240.75
2022-10-06T11:40:53.525Z,100246.97
2022-10-06T11:43:35.576Z,100247.66
2022-10-06T11:46:32.109Z,100244.84
2022-10-06T11:49:54.904Z,100240.50
2022-10-06T11:52:54.453Z,100250.69
2022-10-06T11:55:26.608Z,100258.22
2022-10-06T12:01:03.296Z,100250.13
2022-10-06T12:03:48.563Z,100253.31
2022-10-06T12:07:06.986Z,100257.97
2022-10-06T12:09:53.701Z,100261.28
2022-10-06T12:13:05.286Z,100249.53
2022-10-06T12:19:21.464Z,100251.88
2022-10-06T12:22:02.144Z,100256.00
2022-10-06T12:24:43.895Z,100254.44
2022-10-06T12:27:34.530Z,100253.53
2022-10-06T12:30:21.298Z,100241.81
2022-10-06T12:32:58.379Z,100252.22
2022-10-06T12:35:33.363Z,100248.59
2022-10-06T12:38:06.358Z,100244.00
2022-10-06T12:40:55.964Z,100246.59
2022-10-06T12:43:35.177Z,100245.19
2022-10-06T12:46:16.390Z,100244.63
2022-10-06T12:49:04.031Z,100248.72
2022-10-06T12:51:41.103Z,100249.28
2022-10-06T12:54:20.558Z,100255.50
2022-10-06T12:57:02.116Z,100251.84
2022-10-06T12:59:33.990Z,100246.59
2022-10-06T13:02:09.874Z,100252.22
2022-10-06T13:04:43.179Z,100251.84
2022-10-06T13:07:20.693Z,100256.53
2022-10-06T13:10:27.537Z,100255.38
2022-10-06T13:12:58.190Z,100261.47
2022-10-06T13:15:35.101Z,100256.75
2022-10-06T13:18:16.169Z,100263.78
2022-10-06T13:20:54.049Z,100260.97
2022-10-06T13:23:43.623Z,100263.56
2022-10-06T13:26:24.890Z,100261.31
2022-10-06T13:29:22.548Z,100256.50
2022-10-06T13:32:08.076Z,100261.31
2022-10-06T13:34:43.360Z,100259.81
2022-10-06T13:37:23.477Z,100259.94
2022-10-06T13:39:57.720Z,100265.66
2022-10-06T13:42:49.418Z,100268.94
2022-10-06T13:45:26.403Z,100274.25
2022-10-06T13:48:17.130Z,100278.81
2022-10-06T13:53:31.629Z,100281.81
2022-10-06T13:56:36.322Z,100276.91
2022-10-06T13:59:38.622Z,100281.34
2022-10-06T14:02:26.881Z,100286.72
2022-10-06T14:05:24.685Z,100279.47
2022-10-06T14:08:05.762Z,100288.00
2022-10-06T14:11:10.165Z,100279.91
2022-10-06T14:13:53.361Z,100280.38
2022-10-06T14:16:29.025Z,100282.94
2022-10-06T14:19:02.125Z,100284.00
2022-10-06T14:21:40.208Z,100286.69
2022-10-06T14:24:26.385Z,100285.88
2022-10-06T14:27:09.071Z,100278.00
2022-10-06T14:29:41.412Z,100286.69
2022-10-06T14:32:15.470Z,100285.63
2022-10-06T14:34:47.149Z,100282.94
2022-10-06T14:37:18.253Z,100288.31
2022-10-06T14:40:11.551Z,100279.28
2022-10-06T14:43:12.673Z,100281.34
2022-10-06T14:45:50.306Z,100286.84
2022-10-06T14:48:20.239Z,100282.94
2022-10-06T14:50:49.587Z,100282.34
2022-10-06T14:53:19.022Z,100290.66
2022-10-06T14:55:50.026Z,100277.88
2022-10-06T14:58:21.025Z,100284.28
2022-10-06T15:00:53.068Z,100286.03
2022-10-06T15:03:21.940Z,100290.81
2022-10-06T15:06:08.091Z,100284.03
2022-10-06T15:08:37.356Z,100291.72
2022-10-06T15:11:06.997Z,100293.44
2022-10-06T15:13:36.984Z,100292.84
2022-10-06T15:16:08.169Z,100288.38
2022-10-06T15:18:40.694Z,100288.59
2022-10-06T15:21:13.153Z,100299.00
2022-10-06T15:23:42.072Z,100293.00
2022-10-06T15:26:30.180Z,100303.63
2022-10-06T15:29:01.923Z,100302.41
2022-10-06T15:31:35.481Z,100298.56
2022-10-06T15:34:07.535Z,100299.22
2022-10-06T15:36:38.710Z,100306.91
2022-10-06T15:39:09.874Z,100309.16
2022-10-06T15:42:32.049Z,100312.91
2022-10-06T15:45:05.099Z,100305.72
2022-10-06T15:47:38.706Z,100304.34
2022-10-06T15:50:08.630Z,100305.69
2022-10-06T15:57:05.742Z,100303.09
2022-10-06T15:59:35.350Z,100304.75
2022-10-06T16:02:16.315Z,100308.69
2022-10-06T16:04:57.521Z,100305.41
2022-10-06T16:07:26.634Z,100311.22
2022-10-06T16:09:55.611Z,100308.59
2022-10-06T16:12:28.712Z,100305.56
2022-10-06T16:14:57.769Z,100305.22
2022-10-06T16:17:27.254Z,100309.38
2022-10-06T16:20:05.722Z,100308.59
2022-10-06T16:22:35.925Z,100315.25
2022-10-06T16:25:05.828Z,100308.59
2022-10-06T16:27:35.520Z,100308.13
2022-10-06T16:30:04.588Z,100311.69
2022-10-06T16:32:52.783Z,100322.06
2022-10-06T16:35:37.553Z,100318.22
2022-10-06T16:38:52.981Z,100315.78
2022-10-06T16:46:37.557Z,100323.06
2022-10-06T16:49:30.506Z,100344.75
2022-10-06T16:56:42.197Z,100341.00
2022-10-06T17:04:53.316Z,100347.84
2022-10-06T17:07:22.573Z,100356.31
2022-10-06T17:10:18.444Z,100364.97
2022-10-06T17:17:08.675Z,100378.25
2022-10-06T17:19:37.657Z,100380.09
2022-10-06T17:22:06.703Z,100373.47
2022-10-06T17:24:39.030Z,100366.88
2022-10-06T17:27:08.262Z,100377.63
2022-10-06T17:29:41.382Z,100374.72
2022-10-06T17:32:47.147Z,100375.75
2022-10-06T17:35:22.110Z,100380.09
2022-10-06T17:38:28.654Z,100377.81
2022-10-06T17:41:09.822Z,100371.22
2022-10-06T17:43:47.081Z,100380.94
2022-10-06T17:46:21.081Z,100386.31
2022-10-06T17:49:04.923Z,100384.22
2022-10-06T17:52:13.033Z,100382.16
2022-10-06T17:54:45.114Z,100378.22
2022-10-06T17:57:14.277Z,100371.41
2022-10-06T17:59:48.438Z,100377.00
2022-10-06T18:04:01.272Z,100383.41
2022-10-06T18:06:56.735Z,100380.88
2022-10-06T18:11:16.325Z,100383.34
2022-10-06T18:18:08.008Z,100379.59
2022-10-06T18:37:08.984Z,100382.28
2022-10-06T18:39:41.087Z,100375.84
2022-10-06T18:42:11.987Z,100379.09
2022-10-06T18:45:04.201Z,100381.16
2022-10-06T18:47:50.560Z,100383.63
2022-10-06T18:50:20.916Z,100386.09
2022-10-06T18:52:51.214Z,100382.16
2022-10-06T18:55:20.803Z,100386.22
2022-10-06T18:57:50.482Z,100387.22
2022-10-06T19:00:19.923Z,100386.44
2022-10-06T19:02:52.538Z,100390.59
2022-10-06T19:05:23.499Z,100390.19
2022-10-06T19:08:00.202Z,100387.84
2022-10-06T19:10:29.904Z,100386.94
2022-10-06T19:12:59.586Z,100398.53
2022-10-06T19:15:28.959Z,100393.00
2022-10-06T19:18:03.820Z,100391.34
2022-10-06T19:20:49.248Z,100399.44
2022-10-06T19:23:19.371Z,100395.44
2022-10-06T19:26:00.698Z,100401.03
2022-10-06T19:28:31.753Z,100397.69
2022-10-06T19:31:03.178Z,100399.69
2022-10-06T19:33:33.971Z,100397.69
2022-10-06T19:36:04.354Z,100402.22
2022-10-06T19:38:37.465Z,100404.63
2022-10-06T19:41:54.784Z,100409.13
2022-10-06T19:44:48.620Z,100411.53
2022-10-06T19:47:18.251Z,100407.78
2022-10-06T19:49:48.710Z,100409.78
2022-10-06T19:53:13.339Z,100406.25
2022-10-06T19:55:42.363Z,100410.94
2022-10-06T19:58:11.308Z,100416.69
2022-10-06T20:00:43.832Z,100406.75
2022-10-06T20:03:15.948Z,100411.50
2022-10-06T20:05:44.843Z,100409.19
2022-10-06T20:08:20.288Z,100411.66
2022-10-06T20:10:52.098Z,100409.28
2022-10-06T20:17:49.817Z,100417.00
2022-10-06T20:20:20.672Z,100415.22
2022-10-06T20:22:50.105Z,100415.72
2022-10-06T20:25:21.691Z,100414.28
2022-10-06T20:27:50.627Z,100407.66
2022-10-06T20:30:20.597Z,100412.81
2022-10-06T20:32:49.710Z,100411.88
2022-10-06T20:35:19.112Z,100406.63
2022-10-06T20:37:48.078Z,100413.88
2022-10-06T20:40:34.614Z,100417.34
2022-10-06T20:43:07.907Z,100419.28
2022-10-06T20:45:39.053Z,100414.28
2022-10-06T20:48:08.334Z,100415.22
2022-10-06T20:50:37.225Z,100417.00
2022-10-06T20:53:06.557Z,100419.56
2022-10-06T20:55:35.390Z,100421.38
2022-10-06T20:58:05.550Z,100421.22
2022-10-06T21:00:34.947Z,100416.34
2022-10-06T21:03:03.717Z,100416.88
2022-10-06T21:05:32.990Z,100417.38
2022-10-06T21:08:02.303Z,100417.31
2022-10-06T21:10:31.217Z,100416.38
2022-10-06T21:13:02.628Z,100409.78
2022-10-06T21:15:33.438Z,100408.28
2022-10-06T21:18:03.718Z,100414.38
2022-10-06T21:20:32.688Z,100408.28
2022-10-06T21:23:01.544Z,100404.03
2022-10-06T21:25:30.479Z,100399.84
2022-10-06T21:27:59.371Z,100396.28
2022-10-06T21:30:28.227Z,100403.22
2022-10-06T21:32:59.549Z,100398.56
2022-10-06T21:35:28.492Z,100403.53
2022-10-06T21:37:57.202Z,100388.25
2022-10-06T21:40:26.058Z,100390.84
2022-10-06T21:42:55.154Z,100385.59
2022-10-06T21:45:24.971Z,100382.72
2022-10-06T21:47:54.714Z,100388.81
2022-10-06T21:50:25.128Z,100382.19
2022-10-06T21:52:53.971Z,100387.31
2022-10-06T21:55:22.832Z,100378.41
2022-10-06T21:57:51.641Z,100376.97
2022-10-06T22:00:20.625Z,100375.66
2022-10-06T22:02:49.684Z,100382.72
2022-10-06T22:05:24.904Z,100378.69
2022-10-06T22:08:32.635Z,100381.06
2022-10-06T22:11:07.110Z,100382.09
2022-10-06T22:13:36.210Z,100378.59
2022-10-06T22:16:05.861Z,100377.41
2022-10-06T22:18:36.091Z,100383.94
2022-10-06T22:21:15.791Z,100380.19
2022-10-06T22:23:47.226Z,100376.22
2022-10-06T22:26:17.516Z,100377.78
2022-10-06T22:28:49.236Z,100377.69
2022-10-06T22:32:46.089Z,100377.03
2022-10-06T22:35:15.069Z,100374.66
2022-10-06T22:37:45.866Z,100382.22
2022-10-06T22:40:15.253Z,100383.56
2022-10-06T22:42:44.096Z,100380.09
2022-10-06T22:45:13.033Z,100382.03
2022-10-06T22:47:42.130Z,100378.41
2022-10-06T22:50:11.478Z,100373.66
2022-10-06T22:52:40.356Z,100375.56
2022-10-06T22:55:11.062Z,100372.16
2022-10-06T22:57:39.897Z,100373.34
2022-10-06T23:00:10.578Z,100369.56
2022-10-06T23:02:39.286Z,100369.59
2022-10-06T23:05:08.757Z,100369.13
2022-10-06T23:07:37.584Z,100362.78
2022-10-06T23:10:07.361Z,100362.88
2022-10-06T23:12:37.545Z,100367.47
2022-10-06T23:15:11.443Z,100366.81
2022-10-06T23:17:40.295Z,100362.78
2022-10-06T23:20:10.507Z,100358.91
2022-10-06T23:22:39.530Z,100363.03
2022-10-06T23:25:10.155Z,100364.88
2022-10-06T23:27:40.750Z,100369.56
2022-10-06T23:30:11.698Z,100365.97
2022-10-06T23:32:40.870Z,100363.59
2022-10-06T23:35:10.590Z,100366.19
2022-10-06T23:37:40.045Z,100348.06
2022-10-06T23:40:10.294Z,100360.66
2022-10-06T23:42:40.483Z,100358.28
2022-10-06T23:45:10.622Z,100358.63
2022-10-06T23:47:39.412Z,100359.91
2022-10-06T23:50:09.241Z,100360.00
2022-10-06T23:52:38.438Z,100362.31
2022-10-06T23:55:08.264Z,100362.31
2022-10-06T23:57:40.451Z,100356.03
